createdAt,value
2018-07-16T00:00:26.228Z,2.03
2018-07-16T00:02:54.819Z,1.73
2018-07-16T00:05:23.243Z,1.97
2018-07-16T00:07:51.685Z,1.97
2018-07-16T00:10:20.377Z,1.57
2018-07-16T00:12:48.937Z,2.03
2018-07-16T00:15:17.485Z,1.93
2018-07-16T00:17:46.023Z,1.80
2018-07-16T00:20:14.602Z,2.00
2018-07-16T00:22:43.098Z,1.97
2018-07-16T00:25:11.554Z,1.80
2018-07-16T00:27:40.085Z,1.60
2018-07-16T00:30:08.619Z,1.87
2018-07-16T00:32:37.049Z,2.10
2018-07-16T00:35:05.599Z,1.77
2018-07-16T00:37:34.044Z,1.80
2018-07-16T00:40:02.479Z,1.90
2018-07-16T00:42:31.013Z,2.30
2018-07-16T00:44:59.451Z,1.80
2018-07-16T00:47:27.897Z,2.10
2018-07-16T00:49:57.039Z,2.47
2018-07-16T00:52:25.591Z,1.80
2018-07-16T00:54:54.034Z,2.27
2018-07-16T00:57:22.568Z,2.83
2018-07-16T00:59:51.124Z,2.60
2018-07-16T01:02:19.596Z,2.37
2018-07-16T01:04:48.054Z,2.20
2018-07-16T01:07:16.681Z,2.20
2018-07-16T01:09:45.499Z,2.37
2018-07-16T01:12:13.945Z,2.33
2018-07-16T01:14:42.356Z,2.70
2018-07-16T01:17:10.772Z,2.33
2018-07-16T01:19:39.185Z,1.97
2018-07-16T01:22:07.669Z,2.07
2018-07-16T01:24:36.141Z,2.57
2018-07-16T01:27:04.569Z,3.30
2018-07-16T01:29:33.005Z,2.97
2018-07-16T01:32:01.485Z,3.00
2018-07-16T01:34:29.948Z,2.73
2018-07-16T01:36:58.493Z,2.37
2018-07-16T01:39:27.001Z,3.37
2018-07-16T01:41:55.446Z,2.90
2018-07-16T01:44:28.038Z,2.37
2018-07-16T01:46:56.567Z,2.27
2018-07-16T01:49:25.103Z,2.73
2018-07-16T01:51:53.563Z,2.73
2018-07-16T01:54:22.023Z,2.20
2018-07-16T01:56:50.412Z,2.60
2018-07-16T01:59:18.976Z,2.90
2018-07-16T02:01:47.459Z,3.53
2018-07-16T02:04:15.949Z,3.13
2018-07-16T02:06:44.405Z,2.60
2018-07-16T02:09:12.921Z,2.60
2018-07-16T02:11:41.350Z,2.50
2018-07-16T02:14:09.807Z,2.63
2018-07-16T02:16:38.258Z,2.30
2018-07-16T02:19:06.692Z,3.53
2018-07-16T02:21:35.142Z,3.77
2018-07-16T02:24:03.593Z,3.20
2018-07-16T02:26:32.071Z,2.83
2018-07-16T02:29:00.507Z,3.40
2018-07-16T02:31:29.051Z,2.87
2018-07-16T02:33:57.519Z,3.37
2018-07-16T02:36:26.049Z,3.80
2018-07-16T02:38:54.587Z,3.40
2018-07-16T02:41:23.166Z,3.03
2018-07-16T02:43:51.660Z,3.53
2018-07-16T02:46:20.260Z,3.53
2018-07-16T02:48:48.692Z,2.70
2018-07-16T02:51:17.121Z,3.30
2018-07-16T02:53:45.562Z,3.03
2018-07-16T02:56:14.114Z,3.03
2018-07-16T02:58:42.518Z,3.20
2018-07-16T03:01:10.963Z,3.83
2018-07-16T03:03:39.549Z,2.93
2018-07-16T03:06:08.082Z,2.53
2018-07-16T03:08:36.586Z,2.63
2018-07-16T03:11:05.034Z,3.10
2018-07-16T03:13:33.443Z,2.63
2018-07-16T03:16:02.031Z,3.40
2018-07-16T03:18:30.446Z,3.33
2018-07-16T03:20:58.980Z,3.40
2018-07-16T03:23:27.432Z,3.33
2018-07-16T03:25:55.954Z,3.40
2018-07-16T03:28:24.642Z,3.50
2018-07-16T03:30:53.112Z,3.07
2018-07-16T03:33:21.620Z,4.67
2018-07-16T03:35:50.085Z,3.30
2018-07-16T03:38:18.558Z,3.10
2018-07-16T03:40:47.160Z,4.00
2018-07-16T03:43:15.611Z,4.20
2018-07-16T03:45:45.076Z,3.50
2018-07-16T03:48:13.622Z,3.30
2018-07-16T03:50:42.099Z,3.43
2018-07-16T03:53:10.603Z,3.50
2018-07-16T03:55:39.075Z,3.63
2018-07-16T03:58:07.547Z,3.90
2018-07-16T04:00:36.018Z,4.03
2018-07-16T04:03:04.622Z,4.30
2018-07-16T04:05:33.134Z,4.23
2018-07-16T04:08:01.653Z,4.50
2018-07-16T04:13:51.811Z,4.87
2018-07-16T04:16:22.077Z,4.70
2018-07-16T04:18:50.525Z,4.63
2018-07-16T04:21:19.055Z,4.30
2018-07-16T04:23:47.642Z,4.90
2018-07-16T04:26:35.102Z,5.27
2018-07-16T04:29:03.582Z,5.60
2018-07-16T04:31:32.041Z,4.70
2018-07-16T04:34:00.520Z,4.70
2018-07-16T04:36:29.020Z,5.00
2018-07-16T04:38:57.482Z,5.33
2018-07-16T04:41:26.033Z,5.10
2018-07-16T04:43:54.512Z,5.63
2018-07-16T04:46:22.951Z,6.47
2018-07-16T04:48:51.436Z,5.97
2018-07-16T04:51:19.917Z,6.10
2018-07-16T04:53:48.487Z,6.53
2018-07-16T04:56:17.041Z,6.03
2018-07-16T04:58:45.455Z,5.70
2018-07-16T05:01:13.893Z,5.87
2018-07-16T05:03:42.425Z,5.07
2018-07-16T05:06:10.920Z,4.97
2018-07-16T05:08:39.336Z,5.27
2018-07-16T05:11:07.902Z,5.10
2018-07-16T05:13:36.441Z,6.20
2018-07-16T05:16:06.352Z,6.87
2018-07-16T05:18:34.909Z,6.93
2018-07-16T05:21:03.433Z,5.97
2018-07-16T05:23:31.908Z,5.33
2018-07-16T05:26:00.360Z,6.07
2018-07-16T05:28:28.785Z,6.17
2018-07-16T05:30:57.246Z,6.37
2018-07-16T05:33:25.737Z,6.30
2018-07-16T05:35:54.265Z,5.83
2018-07-16T05:38:22.813Z,6.73
2018-07-16T05:40:51.248Z,6.13
2018-07-16T05:43:19.698Z,8.17
2018-07-16T05:45:48.219Z,6.77
2018-07-16T05:48:16.728Z,6.60
2018-07-16T05:50:45.176Z,6.73
2018-07-16T05:53:13.712Z,6.23
2018-07-16T05:55:42.137Z,6.20
2018-07-16T05:58:10.630Z,6.07
2018-07-16T06:00:39.035Z,5.20
2018-07-16T06:03:07.501Z,5.03
2018-07-16T06:05:35.940Z,5.60
2018-07-16T06:08:04.420Z,6.00
2018-07-16T06:10:32.876Z,6.20
2018-07-16T06:13:02.081Z,5.77
2018-07-16T06:15:30.657Z,5.50
2018-07-16T06:17:59.098Z,5.47
2018-07-16T06:20:27.646Z,6.43
2018-07-16T06:22:56.185Z,6.37
2018-07-16T06:25:31.812Z,5.47
2018-07-16T06:28:00.305Z,5.80
2018-07-16T06:30:28.841Z,5.97
2018-07-16T06:32:57.371Z,6.13
2018-07-16T06:35:25.881Z,4.77
2018-07-16T06:37:54.337Z,6.37
2018-07-16T06:40:22.955Z,5.20
2018-07-16T06:42:51.656Z,4.80
2018-07-16T06:45:20.235Z,4.83
2018-07-16T06:47:48.855Z,4.90
2018-07-16T06:50:17.356Z,5.33
2018-07-16T06:52:45.831Z,4.97
2018-07-16T06:55:14.309Z,4.90
2018-07-16T06:57:42.795Z,4.63
2018-07-16T07:00:11.299Z,5.20
2018-07-16T07:02:39.735Z,4.47
2018-07-16T07:05:08.254Z,4.73
2018-07-16T07:07:36.831Z,4.20
2018-07-16T07:10:05.768Z,3.70
2018-07-16T07:12:34.211Z,4.47
2018-07-16T07:15:02.645Z,4.30
2018-07-16T07:17:31.279Z,3.67
2018-07-16T07:19:59.741Z,3.10
2018-07-16T07:22:28.160Z,4.17
2018-07-16T07:24:56.600Z,3.30
2018-07-16T07:27:25.112Z,3.10
2018-07-16T07:29:53.683Z,3.20
2018-07-16T07:32:22.188Z,3.20
2018-07-16T07:34:51.607Z,3.73
2018-07-16T07:37:20.235Z,2.53
2018-07-16T07:39:48.732Z,3.50
2018-07-16T07:42:17.243Z,2.83
2018-07-16T07:44:45.908Z,3.33
2018-07-16T07:47:14.523Z,3.20
2018-07-16T07:49:43.070Z,3.53
2018-07-16T07:52:11.485Z,3.27
2018-07-16T07:54:40.119Z,4.17
2018-07-16T07:57:08.725Z,3.90
2018-07-16T07:59:37.328Z,4.63
2018-07-16T08:02:05.800Z,3.90
2018-07-16T08:04:34.312Z,4.77
2018-07-16T08:07:08.109Z,5.43
2018-07-16T08:09:36.611Z,4.23
2018-07-16T08:12:05.190Z,4.10
2018-07-16T08:14:33.938Z,4.63
2018-07-16T08:17:02.576Z,4.57
2018-07-16T08:19:31.028Z,3.63
2018-07-16T08:21:59.593Z,4.57
2018-07-16T08:24:28.689Z,3.17
2018-07-16T08:26:57.221Z,3.73
2018-07-16T08:29:25.788Z,3.30
2018-07-16T08:31:54.381Z,2.90
2018-07-16T08:34:22.862Z,3.03
2018-07-16T08:37:04.093Z,2.90
2018-07-16T08:39:32.609Z,2.93
2018-07-16T08:42:01.097Z,2.10
2018-07-16T08:44:29.659Z,2.60
2018-07-16T08:47:01.553Z,2.90
2018-07-16T08:49:30.083Z,3.23
2018-07-16T08:51:58.529Z,2.70
2018-07-16T08:54:26.980Z,2.50
2018-07-16T08:56:55.520Z,2.03
2018-07-16T08:59:23.972Z,2.60
2018-07-16T09:01:52.545Z,1.80
2018-07-16T09:04:21.152Z,2.17
2018-07-16T09:06:49.777Z,1.80
2018-07-16T09:09:18.349Z,2.40
2018-07-16T09:11:46.986Z,1.67
2018-07-16T09:14:15.564Z,1.70
2018-07-16T09:16:44.150Z,1.40
2018-07-16T09:19:12.799Z,1.80
2018-07-16T09:21:42.216Z,1.40
2018-07-16T09:24:10.801Z,1.80
2018-07-16T09:26:39.391Z,1.90
2018-07-16T09:29:08.381Z,1.87
2018-07-16T09:31:37.046Z,1.50
2018-07-16T09:34:05.572Z,1.50
2018-07-16T09:36:34.264Z,1.40
2018-07-16T09:39:02.883Z,1.43
2018-07-16T09:41:31.380Z,1.17
2018-07-16T09:43:59.956Z,1.53
2018-07-16T09:46:28.439Z,1.37
2018-07-16T09:48:57.493Z,1.70
2018-07-16T09:51:25.969Z,1.33
2018-07-16T09:53:54.552Z,1.73
2018-07-16T09:56:23.595Z,1.77
2018-07-16T09:58:52.462Z,1.30
2018-07-16T10:01:26.248Z,1.57
2018-07-16T10:03:54.764Z,1.67
2018-07-16T10:06:26.664Z,1.53
2018-07-16T10:08:55.212Z,1.40
2018-07-16T10:11:23.693Z,1.23
2018-07-16T10:13:52.179Z,1.93
2018-07-16T10:16:20.682Z,1.10
2018-07-16T10:18:49.263Z,1.97
2018-07-16T10:21:17.745Z,1.67
2018-07-16T10:23:46.315Z,1.30
2018-07-16T10:26:14.900Z,1.20
2018-07-16T10:28:44.917Z,1.23
2018-07-16T10:31:13.481Z,1.67
2018-07-16T10:33:42.001Z,1.27
2018-07-16T10:36:10.384Z,2.00
2018-07-16T10:38:38.862Z,1.07
2018-07-16T10:41:07.426Z,1.30
2018-07-16T10:43:36.022Z,0.93
2018-07-16T10:46:04.784Z,1.40
2018-07-16T10:48:33.348Z,1.50
2018-07-16T10:51:02.006Z,1.30
2018-07-16T10:53:30.740Z,1.40
2018-07-16T10:55:59.620Z,1.47
2018-07-16T10:58:28.274Z,0.90
2018-07-16T11:00:56.811Z,1.20
2018-07-16T11:03:25.296Z,1.30
2018-07-16T11:05:53.780Z,1.13
2018-07-16T11:08:22.237Z,1.10
2018-07-16T11:10:50.698Z,1.07
2018-07-16T11:13:19.212Z,1.53
2018-07-16T11:15:47.804Z,1.27
2018-07-16T11:18:16.307Z,1.00
2018-07-16T11:20:44.904Z,1.90
2018-07-16T11:23:13.462Z,1.63
2018-07-16T11:25:46.102Z,1.47
2018-07-16T11:28:14.601Z,1.30
2018-07-16T11:30:43.107Z,1.50
2018-07-16T11:33:11.607Z,1.30
2018-07-16T11:35:40.206Z,1.57
2018-07-16T11:38:08.653Z,1.20
2018-07-16T11:40:37.193Z,1.63
2018-07-16T11:43:05.796Z,1.10
2018-07-16T11:45:34.306Z,1.10
2018-07-16T11:48:02.854Z,1.73
2018-07-16T11:50:31.363Z,1.27
2018-07-16T11:52:59.953Z,1.20
2018-07-16T11:55:28.501Z,1.30
2018-07-16T11:57:56.973Z,1.37
2018-07-16T12:00:25.706Z,1.20
2018-07-16T12:02:54.250Z,0.83
2018-07-16T12:05:22.746Z,1.27
2018-07-16T12:07:51.260Z,1.00
2018-07-16T12:10:19.811Z,1.10
2018-07-16T12:12:48.408Z,1.20
2018-07-16T12:15:16.955Z,0.90
2018-07-16T12:17:45.569Z,0.90
2018-07-16T12:20:14.134Z,1.50
2018-07-16T12:22:42.706Z,1.37
2018-07-16T12:25:11.186Z,1.10
2018-07-16T12:27:39.710Z,1.10
2018-07-16T12:30:08.361Z,1.10
2018-07-16T12:32:36.925Z,1.20
2018-07-16T12:35:05.633Z,1.20
2018-07-16T12:37:34.097Z,1.10
2018-07-16T12:40:02.638Z,1.05
2018-07-16T12:42:31.183Z,0.90
2018-07-16T12:44:59.666Z,1.13
2018-07-16T12:47:28.217Z,1.50
2018-07-16T12:49:56.695Z,1.30
2018-07-16T12:52:25.185Z,0.90
2018-07-16T12:54:53.701Z,1.27
2018-07-16T12:57:22.207Z,1.00
2018-07-16T12:59:50.925Z,1.00
2018-07-16T13:02:19.514Z,1.25
2018-07-16T13:04:47.958Z,1.32
2018-07-16T13:07:16.505Z,1.10
2018-07-16T13:09:45.058Z,1.00
2018-07-16T13:12:13.609Z,1.00
2018-07-16T13:14:42.167Z,1.30
2018-07-16T13:17:11.126Z,1.42
2018-07-16T13:19:39.548Z,1.00
2018-07-16T13:22:08.102Z,0.95
2018-07-16T13:24:36.666Z,0.95
2018-07-16T13:27:05.381Z,1.27
2018-07-16T13:29:33.993Z,1.20
2018-07-16T13:32:02.617Z,1.00
2018-07-16T13:34:31.275Z,0.90
2018-07-16T13:36:59.795Z,1.33
2018-07-16T13:39:28.350Z,1.20
2018-07-16T13:41:56.789Z,1.50
2018-07-16T13:44:25.336Z,1.02
2018-07-16T13:46:53.905Z,1.23
2018-07-16T13:49:22.401Z,1.80
2018-07-16T13:51:50.893Z,1.30
2018-07-16T13:54:19.622Z,1.27
2018-07-16T13:56:48.071Z,1.03
2018-07-16T13:59:16.589Z,1.00
2018-07-16T14:01:45.072Z,0.60
2018-07-16T14:04:13.682Z,0.70
2018-07-16T14:06:42.170Z,0.67
2018-07-16T14:09:10.632Z,0.90
2018-07-16T14:11:39.106Z,1.37
2018-07-16T14:14:07.603Z,1.10
2018-07-16T14:16:36.181Z,1.17
2018-07-16T14:19:04.917Z,1.00
2018-07-16T14:21:33.544Z,1.03
2018-07-16T14:24:02.015Z,0.97
2018-07-16T14:26:30.623Z,1.10
2018-07-16T14:28:59.134Z,0.80
2018-07-16T14:31:27.756Z,1.33
2018-07-16T14:33:56.266Z,0.80
2018-07-16T14:36:24.851Z,0.93
2018-07-16T14:38:53.462Z,0.97
2018-07-16T14:41:22.129Z,0.87
2018-07-16T14:43:50.807Z,1.00
2018-07-16T14:46:20.439Z,1.30
2018-07-16T14:48:49.184Z,1.20
2018-07-16T14:51:17.776Z,1.30
2018-07-16T14:53:46.362Z,0.80
2018-07-16T14:56:14.908Z,1.07
2018-07-16T14:58:43.442Z,1.20
2018-07-16T15:01:11.885Z,0.93
2018-07-16T15:03:40.381Z,1.10
2018-07-16T15:06:08.928Z,1.00
2018-07-16T15:08:37.640Z,1.03
2018-07-16T15:11:06.539Z,0.80
2018-07-16T15:13:35.018Z,0.83
2018-07-16T15:16:03.506Z,0.70
2018-07-16T15:18:32.116Z,1.23
2018-07-16T15:21:01.168Z,0.87
2018-07-16T15:23:29.233Z,1.07
2018-07-16T15:25:57.656Z,1.13
2018-07-16T15:28:26.209Z,0.80
2018-07-16T15:30:54.660Z,0.87
2018-07-16T15:33:25.105Z,1.37
2018-07-16T15:35:53.968Z,0.80
2018-07-16T15:38:22.571Z,1.30
2018-07-16T15:40:51.770Z,1.47
2018-07-16T15:43:21.903Z,0.83
2018-07-16T15:45:50.432Z,0.87
2018-07-16T15:48:18.993Z,1.03
2018-07-16T15:50:47.550Z,1.13
2018-07-16T15:53:16.573Z,1.20
2018-07-16T15:55:45.124Z,0.70
2018-07-16T15:58:13.649Z,1.33
2018-07-16T16:00:42.174Z,0.70
2018-07-16T16:03:10.757Z,1.37
2018-07-16T16:05:39.270Z,0.87
2018-07-16T16:08:07.873Z,1.33
2018-07-16T16:10:37.215Z,1.60
2018-07-16T16:13:14.461Z,0.97
2018-07-16T16:15:42.997Z,0.80
2018-07-16T16:18:12.221Z,1.20
2018-07-16T16:20:40.869Z,1.90
2018-07-16T16:23:09.535Z,0.90
2018-07-16T16:25:38.093Z,2.90
2018-07-16T16:28:06.746Z,1.27
2018-07-16T16:30:35.357Z,1.10
2018-07-16T16:33:03.998Z,1.33
2018-07-16T16:35:32.384Z,1.20
2018-07-16T16:38:01.296Z,0.90
2018-07-16T16:40:30.018Z,1.63
2018-07-16T16:42:58.634Z,1.10
2018-07-16T16:45:27.136Z,2.00
2018-07-16T16:47:55.718Z,3.37
2018-07-16T16:50:24.444Z,1.13
2018-07-16T16:52:52.992Z,1.07
2018-07-16T16:55:21.549Z,1.23
2018-07-16T16:57:49.997Z,1.20
2018-07-16T17:00:18.501Z,1.00
2018-07-16T17:02:46.994Z,1.33
2018-07-16T17:05:15.465Z,1.73
2018-07-16T17:07:43.947Z,1.37
2018-07-16T17:10:12.462Z,1.13
2018-07-16T17:12:41.003Z,1.20
2018-07-16T17:15:09.509Z,1.00
2018-07-16T17:17:39.109Z,0.93
2018-07-16T17:20:07.724Z,0.97
2018-07-16T17:22:36.231Z,1.07
2018-07-16T17:25:05.091Z,1.57
2018-07-16T17:27:33.674Z,1.13
2018-07-16T17:30:02.308Z,0.90
2018-07-16T17:32:30.798Z,0.77
2018-07-16T17:34:59.285Z,0.90
2018-07-16T17:37:27.849Z,0.90
2018-07-16T17:39:56.357Z,0.90
2018-07-16T17:42:25.015Z,0.97
2018-07-16T17:44:54.980Z,0.90
2018-07-16T17:47:24.560Z,1.07
2018-07-16T17:49:53.022Z,1.47
2018-07-16T17:52:21.484Z,1.17
2018-07-16T17:54:50.014Z,1.27
2018-07-16T17:57:18.575Z,1.20
2018-07-16T17:59:47.105Z,1.00
2018-07-16T18:02:15.588Z,1.10
2018-07-16T18:04:44.093Z,1.13
2018-07-16T18:07:16.742Z,1.30
2018-07-16T18:09:45.275Z,0.90
2018-07-16T18:12:13.912Z,0.80
2018-07-16T18:14:42.346Z,1.03
2018-07-16T18:17:10.823Z,1.03
2018-07-16T18:19:39.268Z,1.13
2018-07-16T18:22:07.794Z,0.93
2018-07-16T18:24:36.320Z,1.07
2018-07-16T18:27:05.285Z,1.33
2018-07-16T18:29:33.927Z,1.60
2018-07-16T18:32:03.539Z,1.67
2018-07-16T18:34:32.061Z,1.33
2018-07-16T18:37:00.643Z,1.70
2018-07-16T18:39:29.248Z,2.20
2018-07-16T18:41:57.703Z,1.50
2018-07-16T18:44:26.316Z,2.10
2018-07-16T18:46:54.860Z,1.27
2018-07-16T18:49:23.353Z,1.13
2018-07-16T18:51:51.957Z,1.50
2018-07-16T18:54:20.513Z,1.37
2018-07-16T18:56:49.096Z,1.47
2018-07-16T18:59:17.679Z,1.77
2018-07-16T19:01:47.359Z,1.73
2018-07-16T19:04:16.000Z,1.60
2018-07-16T19:06:44.472Z,1.60
2018-07-16T19:09:13.173Z,2.57
2018-07-16T19:11:41.677Z,3.00
2018-07-16T19:14:10.701Z,3.07
2018-07-16T19:16:39.581Z,2.33
2018-07-16T19:19:08.208Z,1.40
2018-07-16T19:21:37.510Z,2.17
2018-07-16T19:24:05.990Z,1.83
2018-07-16T19:26:34.543Z,1.63
2018-07-16T19:29:10.617Z,1.90
2018-07-16T19:31:39.089Z,1.60
2018-07-16T19:34:07.829Z,2.10
2018-07-16T19:36:37.422Z,1.63
2018-07-16T19:39:07.971Z,1.80
2018-07-16T19:41:36.921Z,1.40
2018-07-16T19:44:05.516Z,2.40
2018-07-16T19:46:34.103Z,1.40
2018-07-16T19:49:02.685Z,2.23
2018-07-16T19:51:31.444Z,1.63
2018-07-16T19:53:59.943Z,2.10
2018-07-16T19:56:28.409Z,1.77
2018-07-16T19:58:57.109Z,2.20
2018-07-16T20:01:25.600Z,1.87
2018-07-16T20:03:54.115Z,2.13
2018-07-16T20:06:22.645Z,1.33
2018-07-16T20:08:51.124Z,1.73
2018-07-16T20:11:19.771Z,1.77
2018-07-16T20:13:48.283Z,2.30
2018-07-16T20:16:16.759Z,2.43
2018-07-16T20:18:45.253Z,2.87
2018-07-16T20:21:13.948Z,2.50
2018-07-16T20:23:42.518Z,2.50
2018-07-16T20:26:11.053Z,1.97
2018-07-16T20:28:39.578Z,2.83
2018-07-16T20:31:08.104Z,2.63
2018-07-16T20:33:36.683Z,2.27
2018-07-16T20:36:05.618Z,2.33
2018-07-16T20:38:34.128Z,2.27
2018-07-16T20:41:02.641Z,3.60
2018-07-16T20:43:31.149Z,2.00
2018-07-16T20:45:59.715Z,1.80
2018-07-16T20:48:28.290Z,3.27
2018-07-16T20:50:56.882Z,3.17
2018-07-16T20:53:25.356Z,3.17
2018-07-16T20:55:53.829Z,2.80
2018-07-16T20:58:22.402Z,3.10
2018-07-16T21:00:50.927Z,2.23
2018-07-16T21:03:19.376Z,2.17
2018-07-16T21:05:47.978Z,2.03
2018-07-16T21:08:16.512Z,2.33
2018-07-16T21:10:45.125Z,2.17
2018-07-16T21:13:13.709Z,3.63
2018-07-16T21:15:42.317Z,3.50
2018-07-16T21:18:10.792Z,3.27
2018-07-16T21:20:39.327Z,2.57
2018-07-16T21:23:07.852Z,2.60
2018-07-16T21:25:36.538Z,2.73
2018-07-16T21:28:05.186Z,2.00
2018-07-16T21:30:33.789Z,2.80
2018-07-16T21:33:03.515Z,2.27
2018-07-16T21:35:32.136Z,2.63
2018-07-16T21:38:00.669Z,2.60
2018-07-16T21:40:29.210Z,2.90
2018-07-16T21:42:58.082Z,3.17
2018-07-16T21:45:26.748Z,2.73
2018-07-16T21:47:55.300Z,2.53
2018-07-16T21:50:23.997Z,2.70
2018-07-16T21:52:52.460Z,2.80
2018-07-16T21:55:21.259Z,2.37
2018-07-16T21:57:49.844Z,3.10
2018-07-16T22:00:29.183Z,2.70
2018-07-16T22:02:58.858Z,3.37
2018-07-16T22:05:28.295Z,3.97
2018-07-16T22:07:58.097Z,4.23
2018-07-16T22:10:27.304Z,4.53
2018-07-16T22:12:56.912Z,4.37
2018-07-16T22:15:26.731Z,3.80
2018-07-16T22:17:56.934Z,4.90
2018-07-16T22:20:26.573Z,4.97
2018-07-16T22:22:55.351Z,5.43
2018-07-16T22:25:24.850Z,4.07
2018-07-16T22:27:53.338Z,5.33
2018-07-16T22:30:22.152Z,5.13
2018-07-16T22:32:50.903Z,6.07
2018-07-16T22:35:19.388Z,5.00
2018-07-16T22:37:47.992Z,5.40
2018-07-16T22:40:16.488Z,4.87
2018-07-16T22:42:45.054Z,5.60
2018-07-16T22:45:13.637Z,4.90
2018-07-16T22:47:42.111Z,6.27
2018-07-16T22:50:10.771Z,4.80
2018-07-16T22:52:39.366Z,6.30
2018-07-16T22:55:07.813Z,4.33
2018-07-16T22:57:36.339Z,5.50
2018-07-16T23:00:05.951Z,4.93
2018-07-16T23:02:34.584Z,4.97
2018-07-16T23:05:03.079Z,6.90
2018-07-16T23:07:31.589Z,6.77
2018-07-16T23:10:00.077Z,5.37
2018-07-16T23:12:28.554Z,6.37
2018-07-16T23:14:57.053Z,5.23
2018-07-16T23:17:25.622Z,6.53
2018-07-16T23:19:54.115Z,5.83
2018-07-16T23:22:22.706Z,6.50
2018-07-16T23:24:51.317Z,5.77
2018-07-16T23:27:19.959Z,6.77
2018-07-16T23:29:48.655Z,6.63
2018-07-16T23:32:17.221Z,5.43
2018-07-16T23:34:45.718Z,7.20
2018-07-16T23:37:14.320Z,5.27
2018-07-16T23:39:42.888Z,7.47
2018-07-16T23:42:11.378Z,5.87
2018-07-16T23:44:39.848Z,6.70
2018-07-16T23:47:08.415Z,6.03
2018-07-16T23:49:36.999Z,6.60
2018-07-16T23:52:05.613Z,7.30
2018-07-16T23:54:34.053Z,6.17
2018-07-16T23:57:02.708Z,7.73
2018-07-16T23:59:31.242Z,5.93
